Latest Weather Observations for Mortlake

IDV60801

Issued at 6:42 pm EST Tuesday 20 August 2019 (issued every 10 minutes, with the page automatically refreshed every 10 minutes)

About weather observations | Map of weather stations | Latest weather observations for VIC | Other Formats
Station Details ID: 090176 Name: MORTLAKE RACECOURSE Lat: -38.07 Lon: 142.77 Height: 130.0 m
Data from the previous 72 hours. | See also: Recent months at Mortlake
Date/Time
EST
Temp
°C
App
Temp
°C
Dew
Point
°C
Rel
Hum
%
Delta-T
°C
Wind Press
QNH
hPa
Press
MSL
hPa
Rain since
9am
mm
Dir  Spd
km/h
Gust
km/h
Spd
kts
Gust
kts
20/06:30pm 10.7 6.7 10.4 98 0.2 WNW 22 32 12 17 1021.4 1021.7 0.0
20/06:00pm 10.9 6.0 10.0 94 0.5 WNW 26 43 14 23 1021.4 1021.7 0.0
20/05:30pm 11.7 6.2 9.3 85 1.2 W 28 43 15 23 1021.2 1021.5 0.0
20/05:00pm 11.5 6.4 9.1 85 1.2 W 26 41 14 22 1021.2 1021.5 0.0
20/04:30pm 12.0 8.2 9.0 82 1.5 W 19 30 10 16 1021.1 1021.4 0.0
20/04:00pm 12.6 7.3 10.0 84 1.3 W 28 43 15 23 1021.0 1021.3 0.0
20/03:30pm 13.0 6.2 9.3 78 1.9 W 35 56 19 30 1021.2 1021.5 0.0
20/03:29pm 13.1 6.7 9.5 79 1.8 W 33 56 18 30 1021.2 1021.5 0.0
20/03:00pm 14.1 7.0 9.5 74 2.4 WNW 37 50 20 27 1021.1 1021.4 0.0
20/02:43pm 13.9 8.2 11.1 83 1.5 WNW 32 56 17 30 1021.3 1021.6 0.0
20/02:30pm 12.8 6.7 10.5 86 1.2 W 33 50 18 27 1021.6 1021.9 0.0
20/02:04pm 13.2 6.3 10.4 83 1.5 WNW 37 56 20 30 1021.5 1021.8 0.0
20/02:00pm 13.2 6.3 10.4 83 1.5 WNW 37 54 20 29 1021.5 1021.8 0.0
20/01:30pm 13.0 6.2 9.4 79 1.8 WNW 35 57 19 31 1021.6 1021.9 0.0
20/01:00pm 13.1 6.6 10.3 83 1.5 WNW 35 56 19 30 1021.9 1022.1 0.0
20/12:59pm 12.9 6.4 10.3 84 1.4 WNW 35 56 19 30 1021.9 1022.1 0.0
20/12:30pm 11.8 5.6 9.9 88 1.0 WNW 33 50 18 27 1022.4 1022.6 0.0
20/12:06pm 12.4 6.4 10.0 85 1.2 WNW 32 50 17 27 1022.8 1023.0 0.0
20/12:00pm 12.0 4.9 9.7 86 1.2 WNW 37 50 20 27 1022.9 1023.1 0.0
20/11:30am 11.8 5.6 9.4 85 1.2 WNW 32 44 17 24 1023.2 1023.4 0.0
20/11:00am 11.7 5.6 9.8 88 1.0 WNW 32 48 17 26 1023.2 1023.4 0.0
20/10:30am 11.2 5.1 9.8 91 0.7 WNW 32 43 17 23 1023.3 1023.5 0.0
20/10:00am 10.3 4.5 9.4 94 0.4 WNW 30 43 16 23 1023.6 1023.8 0.0
20/09:30am 10.1 5.2 9.8 98 0.2 WNW 26 37 14 20 1023.7 1023.9 0.0
20/09:00am 9.5 4.1 9.5 100 0.0 WNW 28 37 15 20 1023.7 1023.9 2.0
20/08:30am 9.0 4.2 9.0 100 0.0 WNW 24 33 13 18 1023.7 1023.9 2.0
20/08:00am 8.6 4.1 8.6 100 0.0 WNW 22 28 12 15 1023.6 1023.8 2.0
20/07:30am 8.2 4.0 8.2 100 0.0 WNW 20 28 11 15 1023.5 1023.7 2.0
20/07:00am 8.1 3.5 8.1 100 0.0 WNW 22 32 12 17 1023.3 1023.5 2.0
20/06:30am 8.2 3.2 8.2 100 0.0 WNW 24 32 13 17 1023.3 1023.5 2.0
20/06:00am 8.2 3.2 8.2 100 0.0 WNW 24 33 13 18 1023.5 1023.7 2.0
20/05:30am 8.0 3.0 8.0 100 0.0 WNW 24 32 13 17 1023.4 1023.6 2.0
20/05:00am 7.9 2.9 7.9 100 0.0 WNW 24 32 13 17 1023.4 1023.6 2.0
20/04:30am 7.8 2.7 7.8 100 0.0 WNW 24 32 13 17 1023.3 1023.5 2.0
20/04:00am 7.7 3.0 7.7 100 0.0 WNW 22 32 12 17 1023.2 1023.4 2.0
20/03:30am 7.2 2.9 7.2 100 0.0 WNW 19 26 10 14 1023.5 1023.7 2.0
20/03:00am 7.1 2.6 7.1 100 0.0 NW 20 30 11 16 1023.6 1023.8 2.0
20/02:30am 7.4 3.0 7.4 100 0.0 NW 20 24 11 13 1024.1 1024.3 2.0
20/02:00am 7.4 3.0 7.4 100 0.0 WNW 20 28 11 15 1024.2 1024.4 2.0
20/01:30am 7.2 2.8 7.2 100 0.0 WNW 20 28 11 15 1024.2 1024.4 2.0
20/01:00am 7.2 2.9 7.2 100 0.0 WNW 19 26 10 14 1024.4 1024.6 2.0
20/12:30am 7.7 3.0 7.7 100 0.0 WNW 22 30 12 16 1024.5 1024.7 2.0
20/12:00am 7.5 2.7 7.5 100 0.0 WNW 22 28 12 15 1024.5 1024.7 2.0
 
Date/Time
EST
Temp
°C
App
Temp
°C
Dew
Point
°C
Rel
Hum
%
Delta-T
°C
Wind Press
QNH
hPa
Press
MSL
hPa
Rain since
9am
mm
Dir  Spd
km/h
Gust
km/h
Spd
kts
Gust
kts
19/11:30pm 7.1 2.6 7.1 100 0.0 WNW 20 28 11 15 1024.7 1024.9 1.8
19/11:00pm 7.7 2.6 7.7 100 0.0 WNW 24 35 13 19 1024.7 1024.9 1.8
19/10:30pm 7.4 3.0 7.4 100 0.0 WNW 20 30 11 16 1024.9 1025.1 1.8
19/10:00pm 7.6 3.4 7.6 100 0.0 WNW 19 30 10 16 1024.9 1025.1 1.8
19/09:30pm 7.3 3.4 7.3 100 0.0 WNW 17 26 9 14 1024.9 1025.1 1.8
19/09:00pm 7.5 3.3 7.5 100 0.0 WNW 19 28 10 15 1024.8 1025.0 1.8
19/08:30pm 7.2 4.1 7.1 99 0.0 WNW 13 19 7 10 1024.7 1024.9 1.8
19/08:00pm 7.4 3.9 7.0 97 0.2 WNW 15 22 8 12 1024.6 1024.8 1.8
19/07:30pm 7.8 3.5 7.1 95 0.3 WNW 19 24 10 13 1024.3 1024.5 1.8
19/07:00pm 7.9 4.4 7.1 95 0.4 WNW 15 20 8 11 1023.8 1024.0 1.8
19/06:30pm 8.5 4.1 6.5 87 0.9 W 19 30 10 16 1023.3 1023.5 1.8
19/06:00pm 8.2 5.2 7.6 96 0.3 W 13 19 7 10 1023.1 1023.3 1.8
19/05:30pm 8.4 5.9 8.0 97 0.2 W 11 19 6 10 1023.0 1023.2 1.8
19/05:00pm 8.5 4.3 7.4 93 0.5 WSW 19 28 10 15 1022.7 1022.9 1.8
19/04:30pm 9.3 4.1 5.5 77 1.7 WSW 22 35 12 19 1022.5 1022.7 1.8
19/04:00pm 10.4 5.1 5.0 69 2.5 WSW 22 33 12 18 1022.0 1022.2 1.6
19/03:30pm 11.4 5.9 6.1 70 2.5 WSW 24 37 13 20 1021.7 1022.0 1.6
19/03:00pm 10.7 6.1 8.1 84 1.3 WSW 22 35 12 19 1021.4 1021.7 1.6
19/02:30pm 10.2 5.3 6.9 80 1.6 WSW 22 33 12 18 1021.2 1021.5 1.6
19/02:00pm 8.9 2.8 6.7 86 1.0 SW 28 41 15 22 1020.9 1021.2 1.6
19/01:30pm 8.6 1.9 5.4 80 1.4 WSW 30 46 16 25 1021.1 1021.4 1.2
19/01:28pm 9.6 3.4 6.0 78 1.7 WSW 28 46 15 25 1021.1 1021.4 1.2
19/01:00pm 8.9 3.2 6.9 87 0.9 WSW 26 37 14 20 1020.9 1021.2 1.2
19/12:30pm 9.7 5.3 7.3 85 1.1 WSW 20 35 11 19 1020.7 1021.0 1.0
19/12:10pm 9.2 2.8 5.2 76 1.8 WSW 28 50 15 27 1020.7 1021.0 0.8
19/12:00pm 9.7 4.4 7.0 83 1.3 WSW 24 37 13 20 1020.7 1021.0 0.8
19/11:30am 10.2 4.3 6.0 75 2.0 WSW 26 39 14 21 1020.5 1020.7 0.8
19/11:00am 8.5 4.2 7.0 90 0.7 W 19 32 10 17 1020.3 1020.5 0.8
19/10:30am 8.1 3.8 7.2 94 0.4 SW 19 30 10 16 1020.0 1020.2 0.8
19/10:00am 7.5 2.7 5.8 89 0.8 W 20 32 11 17 1019.6 1019.8 0.0
19/09:30am 7.2 4.1 7.2 100 0.0 W 13 20 7 11 1019.2 1019.4 0.0
19/09:00am 5.8 3.1 5.8 100 0.0 WNW 9 15 5 8 1018.7 1018.9 10.4
19/08:30am 5.5 2.0 5.5 100 0.0 WNW 13 17 7 9 1018.2 1018.4 10.0
19/08:00am 4.5 0.1 4.5 100 0.0 WSW 17 41 9 22 1018.2 1018.4 9.8
19/07:30am 3.3 -1.4 3.3 100 0.0 NW 17 22 9 12 1017.0 1017.2 9.8
19/07:00am 3.5 -1.1 3.5 100 0.0 WNW 17 24 9 13 1016.6 1016.8 9.8
19/06:30am 3.5 -1.5 3.5 100 0.0 WNW 19 24 10 13 1015.9 1016.1 9.8
19/06:00am 3.8 0.7 3.8 100 0.0 W 9 13 5 7 1015.6 1015.8 9.8
19/05:30am 3.5 -1.5 3.4 99 0.0 W 19 30 10 16 1015.3 1015.5 9.6
19/05:00am 4.0 0.9 3.7 98 0.1 W 9 15 5 8 1015.1 1015.3 8.8
19/04:30am 4.3 -0.3 3.7 96 0.3 W 17 30 9 16 1014.9 1015.1 8.6
19/04:00am 3.5 -1.8 3.1 97 0.2 WNW 20 30 11 16 1014.2 1014.3 8.6
19/03:30am 3.6 -1.7 3.2 97 0.2 WNW 20 26 11 14 1014.1 1014.2 8.6
19/03:00am 4.2 -1.0 3.3 94 0.4 WNW 20 30 11 16 1013.5 1013.7 8.6
19/02:30am 4.4 -0.6 4.4 100 0.0 W 20 32 11 17 1013.9 1014.0 8.6
19/02:00am 4.0 -0.2 4.0 100 0.0 WNW 15 22 8 12 1013.3 1013.5 8.6
19/01:30am 4.2 -0.4 3.8 97 0.2 WNW 17 22 9 12 1013.1 1013.3 8.2
19/01:04am 4.3 -3.3 4.0 98 0.1 W 33 52 18 28 1013.3 1013.5 8.0
19/01:00am 4.4 -1.5 4.1 98 0.1 W 24 52 13 28 1013.2 1013.4 7.8
19/12:57am 4.4 0.3 4.3 99 0.0 W 15 50 8 27 1013.1 1013.3 7.6
19/12:30am 3.5 0.2 2.6 94 0.4 WNW 9 13 5 7 1012.3 1012.5 7.4
19/12:00am 4.6 0.5 4.2 97 0.2 WSW 15 24 8 13 1012.1 1012.3 7.4
 
Date/Time
EST
Temp
°C
App
Temp
°C
Dew
Point
°C
Rel
Hum
%
Delta-T
°C
Wind Press
QNH
hPa
Press
MSL
hPa
Rain since
9am
mm
Dir  Spd
km/h
Gust
km/h
Spd
kts
Gust
kts
18/11:30pm 5.0 -2.2 4.9 99 0.0 WSW 32 50 17 27 1012.2 1012.4 7.4
18/11:28pm 4.9 -1.6 4.8 99 0.0 WSW 28 50 15 27 1012.2 1012.4 7.4
18/11:23pm 5.2 -0.8 5.2 100 0.0 W 26 50 14 27 1012.1 1012.3 7.0
18/11:00pm 5.2 0.5 5.2 100 0.0 WNW 19 28 10 15 1011.4 1011.6 7.0
18/10:30pm 5.6 0.8 5.6 100 0.0 WNW 20 32 11 17 1010.8 1011.0 7.0
18/10:00pm 5.1 0.8 5.1 100 0.0 WNW 17 22 9 12 1010.3 1010.5 7.0
18/09:30pm 5.3 2.1 5.3 100 0.0 WNW 11 20 6 11 1010.2 1010.4 6.8
18/09:00pm 5.0 1.8 4.9 99 0.0 WNW 11 17 6 9 1009.6 1009.8 6.6
18/08:30pm 5.5 1.6 5.4 99 0.0 SW 15 20 8 11 1009.3 1009.5 6.6
18/08:00pm 5.3 -2.6 4.6 95 0.3 WSW 35 57 19 31 1009.6 1009.8 5.6
18/07:55pm 5.5 -1.4 4.6 94 0.4 W 30 57 16 31 1009.4 1009.6 5.4
18/07:54pm 5.6 -0.9 4.7 94 0.4 W 28 57 15 31 1009.3 1009.5 5.4
18/07:30pm 6.1 1.3 5.8 98 0.1 W 20 28 11 15 1008.0 1008.2 4.6
18/07:00pm 6.2 0.8 6.2 100 0.0 SW 24 37 13 20 1007.3 1007.4 4.6
18/06:39pm 6.0 -0.2 6.0 100 0.0 WSW 28 48 15 26 1007.1 1007.2 4.6
18/06:30pm 6.0 -1.2 6.0 100 0.0 WSW 33 48 18 26 1006.9 1007.0 4.6
18/06:00pm 6.2 -1.3 6.1 99 0.0 W 35 57 19 31 1005.4 1005.6 3.4
18/05:45pm 6.9 0.0 6.5 97 0.2 WNW 32 54 17 29 1004.8 1005.0 2.4
18/05:30pm 7.3 1.1 6.2 93 0.5 WNW 28 41 15 22 1004.0 1004.2 1.6
18/05:00pm 8.2 -0.4 6.5 89 0.8 WNW 41 61 22 33 1003.2 1003.4 1.6
18/04:37pm 10.0 2.5 6.5 79 1.6 NW 35 61 19 33 1002.3 1002.5 1.4
18/04:30pm 10.1 2.8 7.0 81 1.5 NW 35 52 19 28 1002.2 1002.4 1.4
18/04:20pm 9.9 3.1 7.7 86 1.1 NW 33 54 18 29 1002.2 1002.4 1.4
18/04:00pm 10.9 2.6 6.3 73 2.2 NW 39 56 21 30 1001.9 1002.1 1.4
18/03:30pm 12.2 3.6 6.3 67 2.8 NW 41 61 22 33 1001.6 1001.8 1.4
18/03:00pm 13.0 4.9 7.2 68 2.8 NW 39 52 21 28 1001.6 1001.8 1.4
18/02:42pm 12.9 5.5 6.7 66 3.0 NW 35 56 19 30 1001.5 1001.6 1.4
18/02:30pm 12.8 6.4 8.5 75 2.2 NNW 32 44 17 24 1001.5 1001.6 1.4
18/02:00pm 11.5 6.8 9.2 86 1.2 NW 24 35 13 19 1001.9 1002.1 1.4
18/01:39pm 9.5 3.5 8.7 95 0.4 NW 30 48 16 26 1002.6 1002.8 1.4
18/01:30pm 8.8 1.1 7.3 90 0.7 NW 37 52 20 28 1003.2 1003.4 1.2
18/01:00pm 13.3 6.1 7.5 68 2.9 NW 35 50 19 27 1002.6 1002.8 0.8
18/12:56pm 13.6 6.8 7.8 68 2.9 NW 33 50 18 27 1002.7 1002.9 0.8
18/12:30pm 13.7 10.7 10.7 82 1.6 NNW 17 28 9 15 1002.8 1003.0 0.8
18/12:00pm 11.3 6.1 7.4 77 1.9 N 24 32 13 17 1003.5 1003.7 0.8
18/11:30am 11.4 7.3 8.6 83 1.4 N 20 28 11 15 1003.9 1004.1 0.8
18/11:00am 10.2 4.7 7.6 84 1.3 N 26 39 14 21 1004.6 1004.8 0.6
18/10:30am 10.2 5.8 6.5 78 1.7 NNW 19 24 10 13 1005.1 1005.3 0.2
18/10:00am 11.5 7.2 6.8 73 2.3 NNW 19 28 10 15 1005.5 1005.7 0.0
18/09:30am 11.7 7.1 6.6 71 2.4 NW 20 28 11 15 1006.2 1006.3 0.0
18/09:00am 11.2 7.4 5.9 70 2.5 NNW 15 19 8 10 1006.4 1006.5 0.0
18/08:30am 11.0 7.0 5.1 67 2.7 NNW 15 19 8 10 1006.3 1006.4 0.0
18/08:00am 10.1 6.1 4.9 70 2.4 N 15 20 8 11 1005.9 1006.0 0.0
18/07:30am 10.1 4.7 4.7 69 2.4 N 22 32 12 17 1005.7 1005.9 0.0
18/07:00am 9.9 4.1 4.5 69 2.4 N 24 35 13 19 1005.6 1005.8 0.0
18/06:30am 9.0 4.0 4.4 73 2.0 N 20 30 11 16 1005.4 1005.6 0.0
18/06:00am 9.2 3.4 4.4 72 2.1 N 24 32 13 17 1005.3 1005.5 0.0
18/05:30am 9.3 2.3 4.1 70 2.3 N 30 37 16 20 1005.2 1005.4 0.0
18/05:00am 9.6 3.5 4.6 71 2.3 NNE 26 32 14 17 1005.7 1005.9 0.0
18/04:30am 9.6 4.3 4.8 72 2.2 NNE 22 32 12 17 1006.5 1006.6 0.0
18/04:00am 10.5 4.3 4.4 66 2.8 N 26 35 14 19 1007.1 1007.2 0.0
18/03:30am 10.6 3.6 4.1 64 2.9 N 30 39 16 21 1007.4 1007.5 0.0
18/03:00am 10.4 3.4 4.1 65 2.8 N 30 41 16 22 1008.0 1008.2 0.0
18/02:30am 10.2 3.6 4.4 67 2.6 N 28 39 15 21 1008.6 1008.8 0.0
18/02:00am 10.2 4.3 4.1 66 2.7 N 24 33 13 18 1009.4 1009.6 0.0
18/01:30am 10.2 4.3 4.1 66 2.7 N 24 35 13 19 1010.0 1010.2 0.0
18/01:00am 10.6 4.4 4.3 65 2.8 N 26 35 14 19 1010.3 1010.5 0.0
18/12:30am 10.5 4.0 4.6 67 2.7 N 28 41 15 22 1010.4 1010.6 0.0
18/12:00am 10.0 4.0 5.2 72 2.2 N 26 33 14 18 1010.7 1010.9 0.0
 
Date/Time
EST
Temp
°C
App
Temp
°C
Dew
Point
°C
Rel
Hum
%
Delta-T
°C
Wind Press
QNH
hPa
Press
MSL
hPa
Rain since
9am
mm
Dir  Spd
km/h
Gust
km/h
Spd
kts
Gust
kts
17/11:30pm 9.7 5.5 5.9 77 1.8 N 17 24 9 13 1011.4 1011.6 0.0
17/11:00pm 8.6 5.3 6.4 86 1.0 N 13 19 7 10 1012.2 1012.4 0.0
17/10:30pm 6.5 2.9 5.0 90 0.7 NNE 13 17 7 9 1012.6 1012.8 0.0
17/10:00pm 7.0 2.2 4.8 86 1.0 N 19 26 10 14 1013.2 1013.4 0.0
17/09:30pm 7.0 2.1 5.2 88 0.8 NNE 20 24 11 13 1012.9 1013.1 0.0
17/09:00pm 7.7 2.8 5.2 84 1.1 N 20 28 11 15 1014.0 1014.1 0.0
17/08:30pm 6.8 2.0 4.6 86 1.0 N 19 22 10 12 1014.2 1014.3 0.0
17/08:00pm 7.0 2.9 4.1 82 1.3 N 15 17 8 9 1014.4 1014.6 0.0
17/07:30pm 8.0 4.3 4.4 78 1.6 N 13 17 7 9 1014.7 1014.9 0.0
17/07:00pm 8.3 3.7 3.6 72 2.0 NNE 17 22 9 12 1014.6 1014.8 0.0

Other formats

Comma delimited format used in spreadsheet applications
http://www.bom.gov.au/fwo/IDV60801/IDV60801.94840.axf

JavaScript Object Notation format (JSON) in row-major order
http://www.bom.gov.au/fwo/IDV60801/IDV60801.94840.json

Data quality

Most of these data are generated automatically and are frequently updated. Quality checks on data are not normally performed. It is possible for incorrect values to appear. Refer to information at About Latest Weather Observations and please check the disclaimer before using these data.